Terminal Aerodrome Forecast
Issued by NWS Jackson, MS

Home | Current Version | Previous Version | Text Only | Print | Product List | Glossary On
Versions: 1 2 3 4 5 6 7 8 9 10 11 12
000
FTUS44 KMEG 261720
TAFTUP
TAF
KTUP 261720Z 2618/2718 21007KT P6SM SCT025 SCT030 BKN040
     FM262000 21009KT P6SM SCT040 BKN250
     FM270000 19003KT P6SM SCT040 BKN250
     FM271400 19008KT P6SM SCT020 OVC050=

USA.gov is the U.S. government's official web portal to all federal, state and local government web resources and services.